Decoded Metar for KRBD (DALLAS/REDBIRD in TX, USA) (IATA:RBD) | Meteo·Mobile Aviation Weather
aviador You're here:

KRBD Decoded Metar

DALLAS/REDBIRD in TX, USA
Report Time2019-02-22 13:15:00
UTC Time2019-02-22 13:59:45
Flight Rules lifr LIFR
Wind100° at 09 kt
W.Decomp.*RWY 13: 7.3 kt HW 5.3 kt LCW
RWY 17: 2.2 kt HW 8.7 kt LCW
W.Rank100° ranks 18
Current wind is above 100° avg. (6.1)
Visibility805 m
Phenomena:Fog
Clouds:Overcast 001 Hf
Ceiling100 ft
Temp07°C (ISA -7)
Dew Point07°C (100% RH)
AAT3.1°C
QNH1015 hPa
Density Alt-66 ft
Elevation666 ft
Report Wrong Elevation
Raw Report
KRBD 221315Z 10009KT 1/2SM FG OVC001 07/07 A2997 RMK AO2 T00720072
$=

Extra information for KRBD:More info

Metar Taf Metar & Taf Last 4 Metars F.Rules Stats Wind Profile Meteogram Temp Stats Airport Information Weather charts Add Link Nearby VenuesMetar ALERT Operation Metar Decoded Social comments

AIRNAV info for KRBD